Time;durP1;ratioP1;P1;durP2;ratioP2;P2;SDS_P1;SDS_P2;PMS_P1;PMS_P2;Temp;Humidity;BMP_temperature;BMP_pressure;BME280_temperature;BME280_humidity;BME280_pressure;Samples;Min_cycle;Max_cycle;Signal;HPM_P1;HPM_P2
2022/11/22 00:01:56;;;;;;;1.08;0.50;;;23.50;45.90;;;;;;5057738;28;20229;-53
2022/11/22 00:04:27;;;;;;;1.38;0.80;;;23.50;45.90;;;;;;5072120;28;20579;-54
2022/11/22 00:06:58;;;;;;;1.27;0.43;;;23.50;45.90;;;;;;5076485;28;20186;-48
2022/11/22 00:09:30;;;;;;;0.93;0.40;;;23.50;45.80;;;;;;5091708;28;20566;-59
2022/11/22 00:12:01;;;;;;;3.42;0.90;;;23.60;45.90;;;;;;5085718;28;20197;-55
2022/11/22 00:14:33;;;;;;;1.55;0.68;;;23.60;45.80;;;;;;5065332;28;20258;-60
2022/11/22 00:17:03;;;;;;;1.55;0.63;;;23.60;45.60;;;;;;5071706;28;20571;-59
2022/11/22 00:19:34;;;;;;;1.20;0.68;;;23.60;45.50;;;;;;5071448;28;20199;-58
2022/11/22 00:22:05;;;;;;;1.33;0.80;;;23.60;45.30;;;;;;5071669;28;20222;-52
2022/11/22 00:24:37;;;;;;;2.00;0.63;;;23.70;45.40;;;;;;5071618;28;20218;-60
2022/11/22 00:27:08;;;;;;;1.70;0.52;;;23.70;45.30;;;;;;5071918;28;20339;-56
2022/11/22 00:29:39;;;;;;;2.22;0.70;;;23.70;45.30;;;;;;5070976;28;20225;-55
2022/11/22 00:32:10;;;;;;;1.88;0.60;;;23.70;45.20;;;;;;5067714;28;20196;-59
2022/11/22 00:34:40;;;;;;;1.10;0.52;;;23.70;45.30;;;;;;5051854;28;20196;-59
2022/11/22 00:37:11;;;;;;;1.38;0.60;;;23.70;45.30;;;;;;5072176;28;20216;-58
2022/11/22 00:39:44;;;;;;;1.73;0.60;;;23.70;45.30;;;;;;5071340;28;20202;-58
2022/11/22 00:42:15;;;;;;;1.80;0.60;;;23.70;45.30;;;;;;5071160;28;20644;-57
2022/11/22 00:44:45;;;;;;;1.23;0.60;;;23.70;45.20;;;;;;5061600;28;20199;-55
2022/11/22 00:47:16;;;;;;;1.30;0.70;;;23.80;45.40;;;;;;5056529;28;20187;-50
2022/11/22 00:49:47;;;;;;;2.22;0.70;;;23.80;45.30;;;;;;5070682;28;20199;-48
2022/11/22 00:52:18;;;;;;;1.38;0.50;;;23.80;45.20;;;;;;5070701;28;20210;-60
2022/11/22 00:54:50;;;;;;;1.63;0.77;;;23.80;45.20;;;;;;5071734;28;20245;-56
2022/11/22 00:57:21;;;;;;;1.63;0.80;;;23.80;45.00;;;;;;5057682;28;20198;-52
2022/11/22 00:59:51;;;;;;;2.50;0.88;;;23.80;45.00;;;;;;5071368;28;20210;-56
2022/11/22 01:02:22;;;;;;;1.00;0.60;;;23.80;44.90;;;;;;5071248;28;20300;-54
2022/11/22 01:04:53;;;;;;;1.95;0.68;;;23.80;44.90;;;;;;5070984;28;20199;-53
2022/11/22 01:07:23;;;;;;;2.53;0.68;;;23.90;44.90;;;;;;5072429;28;20214;-51
2022/11/22 01:09:57;;;;;;;1.63;0.60;;;23.90;44.90;;;;;;5051338;28;20210;-50
2022/11/22 01:12:27;;;;;;;1.85;0.60;;;23.90;44.90;;;;;;5063518;28;20218;-53
2022/11/22 01:14:58;;;;;;;2.13;0.70;;;23.90;45.00;;;;;;5060749;28;20635;-53
2022/11/22 01:17:29;;;;;;;1.52;0.47;;;23.90;44.90;;;;;;5056729;28;20227;-58
2022/11/22 01:20:00;;;;;;;1.23;0.60;;;23.90;44.90;;;;;;5070787;28;20595;-59
2022/11/22 01:22:31;;;;;;;2.63;0.77;;;23.90;45.00;;;;;;5069114;28;20230;-56
2022/11/22 01:25:03;;;;;;;1.20;0.60;;;24.00;44.80;;;;;;5070911;28;20191;-52
2022/11/22 01:27:34;;;;;;;1.67;0.60;;;23.90;44.80;;;;;;5070839;28;20202;-51
2022/11/22 01:30:05;;;;;;;1.42;0.70;;;24.00;45.00;;;;;;5070310;28;20206;-55
2022/11/22 01:32:36;;;;;;;1.00;0.60;;;24.00;44.90;;;;;;5070846;28;20219;-58
2022/11/22 01:35:07;;;;;;;1.10;0.60;;;24.00;44.80;;;;;;5071567;28;20203;-52
2022/11/22 01:37:37;;;;;;;1.75;0.70;;;24.00;44.70;;;;;;5071128;28;20558;-48
2022/11/22 01:40:11;;;;;;;1.08;0.70;;;24.00;44.60;;;;;;5071380;28;20199;-47
2022/11/22 01:42:52;;;;;;;1.17;0.50;;;24.00;44.60;;;;;;5070954;28;20237;-58
2022/11/22 01:45:57;;;;;;;1.13;0.52;;;24.00;44.60;;;;;;5056850;28;20199;-47
2022/11/22 01:48:39;;;;;;;1.48;0.77;;;24.00;44.70;;;;;;5030448;28;20695;-48
2022/11/22 01:51:16;;;;;;;1.63;0.60;;;24.10;44.80;;;;;;5030168;28;20200;-50
2022/11/22 01:53:47;;;;;;;1.02;0.60;;;24.10;44.70;;;;;;5043244;28;20219;-56
2022/11/22 01:56:22;;;;;;;1.48;0.73;;;24.10;44.70;;;;;;5051255;28;20673;-54
2022/11/22 01:58:58;;;;;;;2.00;0.50;;;24.10;44.60;;;;;;5052486;28;20666;-58
2022/11/22 02:01:29;;;;;;;1.05;0.60;;;24.10;44.50;;;;;;5050837;28;20198;-58
2022/11/22 02:04:02;;;;;;;1.25;0.60;;;24.10;44.50;;;;;;5050131;28;20227;-58
2022/11/22 02:06:40;;;;;;;1.02;0.50;;;24.10;44.80;;;;;;5056683;28;20199;-50
2022/11/22 02:09:14;;;;;;;1.40;0.60;;;24.10;44.80;;;;;;5069568;28;20191;-49
2022/11/22 02:11:50;;;;;;;1.00;0.50;;;24.10;45.40;;;;;;5055790;28;20191;-48
2022/11/22 02:14:23;;;;;;;1.60;0.75;;;24.10;44.70;;;;;;5054791;28;20210;-55
2022/11/22 02:16:54;;;;;;;1.38;0.60;;;24.20;44.70;;;;;;5069858;28;20205;-48
2022/11/22 02:19:33;;;;;;;0.98;0.60;;;24.20;44.70;;;;;;5070074;28;20195;-48
2022/11/22 02:22:14;;;;;;;1.33;0.60;;;24.20;44.60;;;;;;5070614;28;20203;-48
2022/11/22 02:24:53;;;;;;;0.80;0.43;;;24.20;44.60;;;;;;5060259;28;20230;-56
2022/11/22 02:27:26;;;;;;;1.48;0.73;;;24.20;44.70;;;;;;5070556;28;20206;-50
2022/11/22 02:29:57;;;;;;;1.40;0.70;;;24.30;44.80;;;;;;5070473;28;20195;-50
2022/11/22 02:32:28;;;;;;;1.00;0.63;;;24.30;44.80;;;;;;5074202;28;20219;-49
2022/11/22 02:34:58;;;;;;;1.58;0.70;;;24.30;44.80;;;;;;5073179;28;20661;-48
2022/11/22 02:37:31;;;;;;;2.25;0.80;;;24.30;44.80;;;;;;5073711;28;20187;-49
2022/11/22 02:40:06;;;;;;;1.92;0.68;;;24.30;44.80;;;;;;5070088;28;20206;-48
2022/11/22 02:42:39;;;;;;;1.20;0.52;;;24.30;44.80;;;;;;5073117;28;20226;-49
2022/11/22 02:45:10;;;;;;;0.80;0.38;;;24.30;44.80;;;;;;5066489;28;20212;-49
2022/11/22 02:47:41;;;;;;;2.63;0.90;;;24.40;44.80;;;;;;5052835;28;20206;-48
2022/11/22 02:50:12;;;;;;;1.50;0.60;;;24.40;44.60;;;;;;5065488;28;20538;-49
2022/11/22 02:52:42;;;;;;;2.20;0.60;;;24.40;44.50;;;;;;5073410;28;20713;-49
2022/11/22 02:55:14;;;;;;;1.17;0.57;;;24.40;44.40;;;;;;5073048;28;20198;-48
2022/11/22 02:57:46;;;;;;;1.95;0.70;;;24.50;44.30;;;;;;5073211;28;20578;-48
2022/11/22 03:00:18;;;;;;;1.10;0.60;;;24.50;44.30;;;;;;5071412;28;20195;-49
2022/11/22 03:02:48;;;;;;;1.65;0.70;;;24.50;44.30;;;;;;5073342;28;20241;-48
2022/11/22 03:05:19;;;;;;;0.93;0.60;;;24.50;44.30;;;;;;5073630;28;20187;-48
2022/11/22 03:07:51;;;;;;;1.52;0.50;;;24.60;44.40;;;;;;5063971;28;20523;-52
2022/11/22 03:10:22;;;;;;;1.63;0.70;;;24.60;44.50;;;;;;5065350;28;20203;-54
2022/11/22 03:12:54;;;;;;;1.45;0.57;;;24.60;44.30;;;;;;5072706;28;20225;-52
2022/11/22 03:15:25;;;;;;;1.45;0.52;;;24.60;44.40;;;;;;5072751;28;20198;-55
2022/11/22 03:18:00;;;;;;;1.15;0.50;;;24.60;44.30;;;;;;5073049;28;20195;-58
2022/11/22 03:20:32;;;;;;;1.70;0.50;;;24.60;44.20;;;;;;5073172;28;20704;-56
2022/11/22 03:23:03;;;;;;;1.02;0.60;;;24.60;44.30;;;;;;5073682;28;20219;-58
2022/11/22 03:25:34;;;;;;;0.70;0.40;;;24.70;44.30;;;;;;5072261;28;20205;-57
2022/11/22 03:28:06;;;;;;;0.85;0.40;;;24.70;44.20;;;;;;5072906;28;20205;-58
2022/11/22 03:30:41;;;;;;;1.42;0.52;;;24.70;44.10;;;;;;5072847;28;20198;-53
2022/11/22 03:33:12;;;;;;;1.42;0.70;;;24.70;44.00;;;;;;5072253;28;20760;-48
2022/11/22 03:35:43;;;;;;;1.42;0.63;;;24.70;43.80;;;;;;5072276;28;20205;-51
2022/11/22 03:38:14;;;;;;;1.58;0.70;;;24.70;43.80;;;;;;5072621;28;20566;-49
2022/11/22 03:40:48;;;;;;;1.17;0.47;;;24.80;43.80;;;;;;5072072;28;20187;-58
2022/11/22 03:43:24;;;;;;;1.48;0.60;;;24.80;43.80;;;;;;5053401;28;20249;-55
2022/11/22 03:45:55;;;;;;;0.98;0.50;;;24.80;43.80;;;;;;5067996;28;20205;-56
2022/11/22 03:48:25;;;;;;;1.30;0.50;;;24.80;43.80;;;;;;5071873;28;20202;-50
2022/11/22 03:51:03;;;;;;;0.93;0.47;;;24.80;43.70;;;;;;5072619;28;20201;-53
2022/11/22 03:53:35;;;;;;;1.13;0.60;;;24.80;43.70;;;;;;5072309;28;20612;-52
2022/11/22 03:56:05;;;;;;;2.28;0.52;;;24.80;43.70;;;;;;5072574;28;20206;-55
2022/11/22 03:58:38;;;;;;;1.63;0.60;;;24.80;43.70;;;;;;5072546;28;20526;-53
2022/11/22 04:01:09;;;;;;;2.55;0.60;;;24.80;43.70;;;;;;5067923;28;20190;-53
2022/11/22 04:03:39;;;;;;;1.85;0.50;;;24.80;43.90;;;;;;5069505;28;20234;-59
2022/11/22 04:06:10;;;;;;;1.40;0.70;;;24.80;43.80;;;;;;5072404;28;20207;-56
2022/11/22 04:08:41;;;;;;;2.05;0.50;;;24.80;43.80;;;;;;5072858;28;20220;-52
2022/11/22 04:11:12;;;;;;;1.02;0.57;;;24.80;43.80;;;;;;5072009;28;20187;-56
2022/11/22 04:16:36;;;;;;;2.17;0.52;;;24.80;43.80;;;;;;5029764;28;20203;-55
2022/11/22 04:19:07;;;;;;;1.27;0.57;;;24.80;43.70;;;;;;5070289;28;20203;-57
2022/11/22 04:21:37;;;;;;;0.80;0.47;;;24.80;43.70;;;;;;5071597;28;20240;-55
2022/11/22 04:26:56;;;;;;;1.58;0.55;;;24.80;43.60;;;;;;5092121;28;20202;-60
2022/11/22 04:29:28;;;;;;;1.42;0.47;;;24.80;43.60;;;;;;5091293;28;20198;-58
2022/11/22 04:34:46;;;;;;;1.85;0.60;;;24.80;43.70;;;;;;5054679;28;20677;-58
2022/11/22 04:37:17;;;;;;;2.15;0.60;;;24.80;43.80;;;;;;5071761;28;20202;-58
2022/11/22 04:39:48;;;;;;;1.10;0.50;;;24.80;43.70;;;;;;5071845;28;20651;-59
2022/11/22 04:45:07;;;;;;;0.90;0.60;;;24.80;43.70;;;;;;5064280;28;20210;-59
2022/11/22 04:53:14;;;;;;;1.02;0.50;;;24.80;43.60;;;;;;5070915;28;20229;-55
2022/11/22 04:55:46;;;;;;;0.95;0.43;;;24.90;43.70;;;;;;5071150;28;20193;-51
2022/11/22 04:58:20;;;;;;;1.42;0.60;;;24.80;43.50;;;;;;5071383;28;20207;-51
2022/11/22 05:00:52;;;;;;;1.17;0.55;;;24.80;43.50;;;;;;5073211;28;20190;-55
2022/11/22 05:03:23;;;;;;;2.08;0.60;;;24.90;43.50;;;;;;5092184;28;20592;-51
2022/11/22 05:05:54;;;;;;;1.45;0.50;;;24.80;43.30;;;;;;5091081;28;20186;-52
2022/11/22 05:08:25;;;;;;;1.00;0.50;;;24.80;43.40;;;;;;5091996;28;20190;-53
2022/11/22 05:10:58;;;;;;;1.23;0.55;;;24.80;43.30;;;;;;5090814;28;20201;-58
2022/11/22 05:13:31;;;;;;;1.10;0.82;;;24.80;43.30;;;;;;5090640;28;20451;-59
2022/11/22 05:16:04;;;;;;;1.13;0.50;;;24.80;43.20;;;;;;5060100;28;20198;-57
2022/11/22 05:18:35;;;;;;;0.90;0.50;;;24.80;43.50;;;;;;5064156;28;20207;-50
2022/11/22 05:21:08;;;;;;;0.85;0.50;;;24.80;43.40;;;;;;5071416;28;20191;-54
2022/11/22 05:23:55;;;;;;;0.82;0.50;;;24.80;43.40;;;;;;5070820;28;20222;-51
2022/11/22 05:26:31;;;;;;;0.88;0.45;;;24.80;43.30;;;;;;5071485;28;20191;-51
2022/11/22 05:29:05;;;;;;;1.05;0.57;;;24.70;43.10;;;;;;5071099;28;20198;-57
2022/11/22 05:31:39;;;;;;;1.13;0.70;;;24.80;43.10;;;;;;5071262;28;20566;-57
2022/11/22 05:34:10;;;;;;;2.08;0.52;;;24.80;43.00;;;;;;5070937;28;20210;-52
2022/11/22 05:36:40;;;;;;;1.15;0.50;;;24.70;43.00;;;;;;5070632;28;20191;-59
2022/11/22 05:39:11;;;;;;;1.77;0.70;;;24.80;43.00;;;;;;5070817;28;20194;-60
2022/11/22 05:41:54;;;;;;;1.88;0.57;;;24.80;42.90;;;;;;5071699;28;20647;-59
2022/11/22 05:44:26;;;;;;;0.93;0.40;;;24.70;42.80;;;;;;5058597;28;20230;-58
2022/11/22 05:46:58;;;;;;;1.55;0.63;;;24.70;42.80;;;;;;5069626;28;20725;-52
2022/11/22 05:49:29;;;;;;;1.73;0.68;;;24.70;42.90;;;;;;5091268;28;20654;-56
2022/11/22 05:52:00;;;;;;;1.75;0.68;;;24.70;43.00;;;;;;5091388;28;20209;-59
2022/11/22 05:54:31;;;;;;;1.92;0.60;;;24.70;42.90;;;;;;5091577;28;20694;-49
2022/11/22 05:57:02;;;;;;;0.73;0.40;;;24.70;43.00;;;;;;5063872;28;20867;-57
2022/11/22 05:59:32;;;;;;;1.55;0.55;;;24.70;42.90;;;;;;5053011;28;20199;-48
2022/11/22 06:02:05;;;;;;;1.20;0.52;;;24.70;42.80;;;;;;5058567;28;20218;-54
2022/11/22 06:04:35;;;;;;;1.75;0.73;;;24.70;42.60;;;;;;5052609;28;20599;-50
2022/11/22 06:07:06;;;;;;;2.15;0.60;;;24.70;42.60;;;;;;5060531;28;20643;-58
2022/11/22 06:09:37;;;;;;;0.98;0.50;;;24.70;42.50;;;;;;5073672;28;20194;-49
2022/11/22 06:12:08;;;;;;;0.82;0.47;;;24.60;42.50;;;;;;5074956;28;20195;-51
2022/11/22 06:14:39;;;;;;;2.00;0.52;;;24.60;42.40;;;;;;5068814;28;20218;-58
2022/11/22 06:17:11;;;;;;;1.23;0.60;;;24.60;42.40;;;;;;5074048;28;20191;-62
2022/11/22 06:19:42;;;;;;;1.48;0.80;;;24.60;42.40;;;;;;5074389;28;20191;-56
2022/11/22 06:22:13;;;;;;;3.72;0.70;;;24.60;42.40;;;;;;5073837;28;20187;-61
2022/11/22 06:24:44;;;;;;;1.25;0.60;;;24.60;42.40;;;;;;5073559;28;20218;-59
2022/11/22 06:27:15;;;;;;;1.17;0.82;;;24.60;42.50;;;;;;5074251;28;20281;-51
2022/11/22 06:29:46;;;;;;;1.85;1.02;;;24.60;42.50;;;;;;5073856;28;20198;-50
2022/11/22 06:32:18;;;;;;;7.97;3.40;;;24.50;42.30;;;;;;5074342;28;20566;-59
2022/11/22 06:34:49;;;;;;;15.07;4.97;;;24.50;42.40;;;;;;5074266;28;20563;-52
2022/11/22 06:37:20;;;;;;;21.52;7.00;;;24.50;42.50;;;;;;5074366;28;20194;-55
2022/11/22 06:39:50;;;;;;;16.00;6.32;;;24.50;42.30;;;;;;5073823;28;20202;-56
2022/11/22 06:42:21;;;;;;;21.02;7.63;;;24.50;42.40;;;;;;5073832;28;20194;-56
2022/11/22 06:44:52;;;;;;;24.10;7.88;;;24.50;42.30;;;;;;5063490;28;20242;-57
2022/11/22 06:47:24;;;;;;;19.85;8.05;;;24.50;42.20;;;;;;5061929;28;20195;-50
2022/11/22 06:49:55;;;;;;;23.30;8.00;;;24.50;42.00;;;;;;5073170;28;20203;-55
2022/11/22 06:52:26;;;;;;;16.67;7.80;;;24.50;42.00;;;;;;5078031;28;20212;-57
2022/11/22 06:54:57;;;;;;;23.25;8.43;;;24.50;42.20;;;;;;5094579;28;20251;-55
2022/11/22 06:57:27;;;;;;;23.52;9.02;;;24.50;42.30;;;;;;5084919;28;20195;-57
2022/11/22 06:59:58;;;;;;;23.05;8.25;;;24.40;42.10;;;;;;5073666;28;20554;-50
2022/11/22 07:02:32;;;;;;;24.77;8.40;;;24.40;42.10;;;;;;5072849;28;20198;-56
2022/11/22 07:05:02;;;;;;;24.65;8.80;;;24.40;42.10;;;;;;5073109;28;20223;-60
2022/11/22 07:07:33;;;;;;;21.77;8.27;;;24.40;42.10;;;;;;5085467;28;20213;-61
2022/11/22 07:10:04;;;;;;;21.30;8.20;;;24.40;42.10;;;;;;5094031;28;20202;-57
2022/11/22 07:12:34;;;;;;;18.17;7.85;;;24.40;42.10;;;;;;5093204;28;20271;-59
2022/11/22 07:15:05;;;;;;;20.25;7.40;;;24.30;42.10;;;;;;5070406;28;20226;-51
2022/11/22 07:17:38;;;;;;;17.67;7.43;;;24.30;42.10;;;;;;5062371;28;20190;-53
2022/11/22 07:20:10;;;;;;;22.10;7.35;;;24.30;42.10;;;;;;5072523;28;20202;-54
2022/11/22 07:22:40;;;;;;;15.15;7.05;;;24.30;42.00;;;;;;5073350;28;20207;-57
2022/11/22 07:25:11;;;;;;;18.90;7.82;;;24.30;42.00;;;;;;5073213;28;20591;-61
2022/11/22 07:27:42;;;;;;;17.63;7.05;;;24.30;42.00;;;;;;5073153;28;20195;-62
2022/11/22 07:30:14;;;;;;;16.98;6.75;;;24.20;41.90;;;;;;5072463;28;20199;-60
2022/11/22 07:32:49;;;;;;;17.30;6.47;;;24.20;42.00;;;;;;5072546;28;20211;-54
2022/11/22 07:35:20;;;;;;;14.98;6.30;;;24.20;42.20;;;;;;5072431;28;20205;-58
2022/11/22 07:37:51;;;;;;;19.63;7.03;;;24.20;42.20;;;;;;5061518;28;20192;-59
2022/11/22 07:40:21;;;;;;;13.95;6.38;;;24.20;42.30;;;;;;5052261;28;20222;-62
2022/11/22 07:42:52;;;;;;;13.73;6.13;;;24.10;42.30;;;;;;5073606;28;20263;-60
2022/11/22 07:45:23;;;;;;;15.35;5.82;;;24.10;42.40;;;;;;5064312;28;20283;-61
2022/11/22 07:47:55;;;;;;;14.32;5.90;;;24.10;42.40;;;;;;5062527;28;20546;-59
2022/11/22 07:50:26;;;;;;;14.60;6.00;;;24.10;42.40;;;;;;5072332;28;20195;-58
2022/11/22 07:53:00;;;;;;;12.38;5.20;;;24.10;42.30;;;;;;5075280;28;20210;-52
2022/11/22 07:55:31;;;;;;;13.38;5.43;;;24.00;42.30;;;;;;5093538;28;20197;-54
2022/11/22 07:58:02;;;;;;;12.13;5.00;;;24.00;42.30;;;;;;5092567;28;20556;-48
2022/11/22 08:00:33;;;;;;;13.27;5.63;;;24.00;42.40;;;;;;5092961;28;20202;-53
2022/11/22 08:03:06;;;;;;;12.80;5.10;;;24.00;42.40;;;;;;5073514;28;20690;-48
2022/11/22 08:05:37;;;;;;;13.75;5.45;;;24.00;42.50;;;;;;5072020;28;20233;-51
2022/11/22 08:08:08;;;;;;;12.40;5.13;;;24.00;42.50;;;;;;5071848;28;20682;-52
2022/11/22 08:10:38;;;;;;;13.07;5.03;;;24.00;42.60;;;;;;5072553;28;20199;-49
2022/11/22 08:13:11;;;;;;;11.20;5.05;;;23.90;42.60;;;;;;5071990;28;20218;-54
2022/11/22 08:15:41;;;;;;;13.95;4.82;;;23.90;42.70;;;;;;5055619;28;20254;-54
2022/11/22 08:18:14;;;;;;;12.25;5.03;;;23.90;42.90;;;;;;5063517;28;20199;-49
2022/11/22 08:20:45;;;;;;;11.80;5.07;;;23.80;42.90;;;;;;5072338;28;20199;-54
2022/11/22 08:23:15;;;;;;;12.10;4.80;;;23.80;42.90;;;;;;5071412;28;20225;-54
2022/11/22 08:25:46;;;;;;;10.05;4.70;;;23.80;42.90;;;;;;5071056;28;20218;-52
2022/11/22 08:28:17;;;;;;;11.00;5.13;;;23.80;43.00;;;;;;5072242;28;20218;-53
2022/11/22 08:30:48;;;;;;;8.75;4.28;;;23.80;43.00;;;;;;5071111;28;20688;-51
2022/11/22 08:33:20;;;;;;;11.80;4.72;;;23.80;43.00;;;;;;5072156;28;20215;-51
2022/11/22 08:35:53;;;;;;;8.70;4.45;;;23.80;43.10;;;;;;5090220;28;20206;-53
2022/11/22 08:38:23;;;;;;;10.38;4.15;;;23.80;43.00;;;;;;5092516;28;20198;-49
2022/11/22 08:40:54;;;;;;;8.68;4.38;;;23.70;43.00;;;;;;5092558;28;20205;-52
2022/11/22 08:43:25;;;;;;;7.00;4.07;;;23.70;43.00;;;;;;5092384;28;20222;-55
2022/11/22 08:45:58;;;;;;;9.18;3.92;;;23.70;43.00;;;;;;5054751;28;20690;-49
2022/11/22 08:48:32;;;;;;;6.90;3.67;;;23.70;43.10;;;;;;5051812;28;20200;-53
2022/11/22 08:51:04;;;;;;;8.00;3.65;;;23.70;43.10;;;;;;5051495;28;20528;-60
2022/11/22 08:53:36;;;;;;;8.52;3.78;;;23.60;43.10;;;;;;5052324;28;20207;-60
2022/11/22 08:56:08;;;;;;;7.72;3.78;;;23.60;43.20;;;;;;5060788;28;20203;-60
2022/11/22 08:58:39;;;;;;;6.95;3.33;;;23.60;43.20;;;;;;5057253;28;20194;-58
2022/11/22 09:01:11;;;;;;;6.00;3.33;;;23.60;43.30;;;;;;5053997;28;20203;-54
2022/11/22 09:03:46;;;;;;;7.93;3.35;;;23.60;43.30;;;;;;5057197;28;20218;-56
2022/11/22 09:06:21;;;;;;;6.63;3.15;;;23.50;43.30;;;;;;5070612;28;20226;-57
2022/11/22 09:08:51;;;;;;;8.52;3.92;;;23.50;43.30;;;;;;5071399;28;20190;-58
2022/11/22 09:11:22;;;;;;;5.78;3.28;;;23.50;43.40;;;;;;5071571;28;20201;-58
2022/11/22 09:13:53;;;;;;;6.18;2.95;;;23.50;43.40;;;;;;5074666;28;20206;-59
2022/11/22 09:16:27;;;;;;;6.78;3.53;;;23.50;43.50;;;;;;5051217;28;20199;-56
2022/11/22 09:19:00;;;;;;;7.05;3.17;;;23.50;43.50;;;;;;5058385;28;20708;-51
2022/11/22 09:21:31;;;;;;;6.13;3.08;;;23.50;43.50;;;;;;5070675;28;20581;-59
2022/11/22 09:24:01;;;;;;;6.45;2.83;;;23.50;43.50;;;;;;5070317;28;20218;-57
2022/11/22 09:26:33;;;;;;;6.40;3.53;;;23.40;43.50;;;;;;5070861;28;20202;-49
2022/11/22 09:29:04;;;;;;;6.72;2.72;;;23.40;43.60;;;;;;5070538;28;20194;-56
2022/11/22 09:31:34;;;;;;;9.07;3.50;;;23.40;43.70;;;;;;5070748;28;20282;-57
2022/11/22 09:34:08;;;;;;;8.13;3.42;;;23.40;43.80;;;;;;5061723;28;20217;-58
2022/11/22 09:36:39;;;;;;;6.82;2.80;;;23.30;43.80;;;;;;5050810;28;20648;-48
2022/11/22 09:39:10;;;;;;;4.45;3.17;;;23.30;43.90;;;;;;5057873;28;20190;-61
2022/11/22 09:42:12;;;;;;;6.68;3.10;;;23.30;43.90;;;;;;5070536;28;20666;-52
2022/11/22 09:44:55;;;;;;;4.88;2.90;;;23.30;43.90;;;;;;5060910;28;20227;-54
2022/11/22 09:47:37;;;;;;;6.13;2.88;;;23.30;43.80;;;;;;5050252;28;20195;-50
2022/11/22 09:50:20;;;;;;;5.10;2.78;;;23.30;43.90;;;;;;5070088;28;20280;-57
2022/11/22 09:52:54;;;;;;;5.97;2.53;;;23.30;43.90;;;;;;5069975;28;20629;-59
2022/11/22 09:55:29;;;;;;;4.97;2.45;;;23.30;43.90;;;;;;5069934;28;20345;-59
2022/11/22 09:58:10;;;;;;;4.22;2.47;;;23.20;43.90;;;;;;5070352;28;20194;-56
2022/11/22 10:00:43;;;;;;;3.47;2.30;;;23.20;43.90;;;;;;5053828;28;20659;-51
2022/11/22 10:03:22;;;;;;;3.85;2.30;;;23.20;44.00;;;;;;5049552;28;20226;-59
2022/11/22 10:05:56;;;;;;;4.13;2.42;;;23.10;44.00;;;;;;5050374;28;20686;-52
2022/11/22 10:08:39;;;;;;;5.82;2.30;;;23.10;44.10;;;;;;5050519;28;20600;-59
2022/11/22 10:11:19;;;;;;;4.00;2.33;;;23.10;44.10;;;;;;5090508;28;20205;-59
2022/11/22 10:13:57;;;;;;;5.28;2.50;;;23.10;44.20;;;;;;5087125;28;20206;-55
2022/11/22 10:16:33;;;;;;;5.45;2.50;;;23.10;44.30;;;;;;5050801;28;20195;-57
2022/11/22 10:19:13;;;;;;;4.40;2.20;;;23.00;44.30;;;;;;5054993;28;20186;-59
2022/11/22 10:21:49;;;;;;;5.38;2.33;;;23.00;44.30;;;;;;5070172;28;20199;-58
2022/11/22 10:24:21;;;;;;;4.45;2.20;;;23.00;44.30;;;;;;5069653;28;20210;-58
2022/11/22 10:26:51;;;;;;;5.30;2.10;;;23.00;44.30;;;;;;5070112;28;20195;-58
2022/11/22 10:29:29;;;;;;;3.25;1.85;;;23.00;44.90;;;;;;5069765;28;20213;-58
2022/11/22 10:32:09;;;;;;;4.20;2.10;;;23.00;44.30;;;;;;5069746;28;20199;-61
2022/11/22 10:34:53;;;;;;;3.95;2.03;;;23.00;44.30;;;;;;5070577;28;20693;-60
2022/11/22 10:37:32;;;;;;;3.22;1.80;;;23.00;44.30;;;;;;5071057;28;20205;-58
2022/11/22 10:40:11;;;;;;;4.05;1.80;;;22.90;44.20;;;;;;5070669;28;20190;-55
2022/11/22 10:43:18;;;;;;;5.60;2.22;;;22.90;44.20;;;;;;5070212;28;20238;-59
2022/11/22 10:45:51;;;;;;;4.15;2.00;;;22.90;44.90;;;;;;5028581;28;20219;-59
2022/11/22 10:48:29;;;;;;;3.55;1.88;;;22.90;44.40;;;;;;5050357;28;20192;-59
2022/11/22 10:51:06;;;;;;;5.32;1.92;;;22.90;44.40;;;;;;5050492;28;20206;-60
2022/11/22 10:53:50;;;;;;;4.68;1.88;;;22.80;44.40;;;;;;5050378;28;20223;-58
2022/11/22 10:56:25;;;;;;;3.13;1.63;;;22.80;44.50;;;;;;5054019;28;20195;-59
2022/11/22 10:59:15;;;;;;;2.63;1.52;;;22.80;44.50;;;;;;5053785;28;20203;-59
2022/11/22 11:01:51;;;;;;;4.20;1.85;;;22.70;44.40;;;;;;5053676;28;20191;-60
2022/11/22 11:04:24;;;;;;;3.55;1.90;;;22.70;44.40;;;;;;5064418;28;20206;-60
2022/11/22 11:06:58;;;;;;;2.90;1.27;;;22.70;44.50;;;;;;5074639;28;20226;-56
2022/11/22 11:09:37;;;;;;;2.70;1.92;;;22.80;44.50;;;;;;5074281;28;20201;-61
2022/11/22 11:12:15;;;;;;;4.32;1.60;;;22.80;44.50;;;;;;5074085;28;20205;-61
2022/11/22 11:14:51;;;;;;;2.88;1.75;;;22.70;44.50;;;;;;5064736;28;20199;-61
2022/11/22 11:17:26;;;;;;;3.22;1.88;;;22.70;44.50;;;;;;5053194;28;20537;-55
2022/11/22 11:20:01;;;;;;;2.55;1.38;;;22.70;44.60;;;;;;5053527;28;20545;-58
2022/11/22 11:22:35;;;;;;;2.17;1.40;;;22.70;44.60;;;;;;5052785;28;20202;-60
2022/11/22 11:25:31;;;;;;;2.85;1.40;;;22.70;44.60;;;;;;5053033;28;20250;-60
2022/11/22 11:28:05;;;;;;;2.00;1.40;;;22.60;44.60;;;;;;5053640;28;20702;-58
2022/11/22 11:30:44;;;;;;;2.83;1.55;;;22.60;44.60;;;;;;5053759;28;20207;-62
2022/11/22 11:33:25;;;;;;;2.53;1.42;;;22.60;44.70;;;;;;5053101;28;20211;-58
2022/11/22 11:35:59;;;;;;;3.03;1.50;;;22.60;44.70;;;;;;5054655;28;20196;-59
2022/11/22 11:38:31;;;;;;;2.17;1.40;;;22.60;44.70;;;;;;5073034;28;20195;-61
2022/11/22 11:41:19;;;;;;;1.95;1.20;;;22.60;44.70;;;;;;5073321;28;20206;-56
2022/11/22 11:43:50;;;;;;;1.98;1.40;;;22.50;44.60;;;;;;5071758;28;20738;-54
2022/11/22 11:46:23;;;;;;;2.13;1.20;;;22.60;44.70;;;;;;5052816;28;20650;-53
2022/11/22 11:48:55;;;;;;;2.55;1.30;;;22.50;44.60;;;;;;5052828;28;20226;-59
2022/11/22 11:51:33;;;;;;;2.35;1.25;;;22.50;44.60;;;;;;5053061;28;20206;-54
2022/11/22 11:54:07;;;;;;;2.50;1.25;;;22.50;44.60;;;;;;5053202;28;20226;-56
2022/11/22 11:56:47;;;;;;;2.17;1.10;;;22.50;44.60;;;;;;5053177;28;20199;-58
2022/11/22 11:59:20;;;;;;;1.80;1.13;;;22.40;44.60;;;;;;5055237;28;20661;-57
2022/11/22 12:01:58;;;;;;;3.58;1.42;;;22.40;44.70;;;;;;5052797;28;20679;-57
2022/11/22 12:04:31;;;;;;;2.35;1.20;;;22.40;44.70;;;;;;5052723;28;20215;-55
2022/11/22 12:07:05;;;;;;;2.13;1.05;;;22.40;44.70;;;;;;5052559;28;20254;-56
2022/11/22 12:09:45;;;;;;;2.55;1.10;;;22.40;44.80;;;;;;5052721;28;20194;-59
2022/11/22 12:12:40;;;;;;;1.10;0.90;;;22.30;44.80;;;;;;5052679;28;20655;-58
2022/11/22 12:15:18;;;;;;;1.40;0.90;;;22.30;44.70;;;;;;5052968;28;20711;-58
2022/11/22 12:18:01;;;;;;;1.50;1.08;;;22.40;44.80;;;;;;5053116;28;20199;-58
2022/11/22 12:20:43;;;;;;;2.13;1.00;;;22.30;44.70;;;;;;5052810;28;20203;-58
2022/11/22 12:23:23;;;;;;;2.42;1.02;;;22.30;44.70;;;;;;5052663;28;20601;-57
2022/11/22 12:25:57;;;;;;;1.70;0.90;;;22.30;44.70;;;;;;5052548;28;20219;-55
2022/11/22 12:28:30;;;;;;;1.33;0.80;;;22.30;44.70;;;;;;5052922;28;20199;-52
2022/11/22 12:31:07;;;;;;;2.08;1.05;;;22.30;44.70;;;;;;5052822;28;20195;-54
2022/11/22 12:33:42;;;;;;;1.65;0.80;;;22.20;44.70;;;;;;5052699;28;20223;-58
2022/11/22 12:36:19;;;;;;;2.00;1.00;;;22.20;44.70;;;;;;5052605;28;20210;-58
2022/11/22 12:38:52;;;;;;;2.25;1.00;;;22.20;44.80;;;;;;5052483;28;20192;-52
2022/11/22 12:41:25;;;;;;;1.30;0.85;;;22.20;44.80;;;;;;5052235;28;20200;-57
2022/11/22 12:43:59;;;;;;;1.50;0.98;;;22.10;44.80;;;;;;5052542;28;20577;-54
2022/11/22 12:46:34;;;;;;;1.50;0.70;;;22.10;44.90;;;;;;5051970;28;20710;-58
2022/11/22 12:49:14;;;;;;;1.23;0.70;;;22.10;44.90;;;;;;5052513;28;20202;-57
2022/11/22 12:51:49;;;;;;;1.10;0.90;;;22.10;44.90;;;;;;5052495;28;20206;-54
2022/11/22 12:54:28;;;;;;;1.33;0.95;;;22.10;44.90;;;;;;5051886;28;20219;-57
2022/11/22 12:57:04;;;;;;;1.83;1.00;;;22.10;44.90;;;;;;5052041;28;20205;-54
2022/11/22 12:59:43;;;;;;;1.20;0.70;;;22.10;44.90;;;;;;5051928;28;20202;-62
2022/11/22 13:02:23;;;;;;;1.52;0.80;;;22.10;44.90;;;;;;5051810;28;20215;-59
2022/11/22 13:04:57;;;;;;;1.25;0.88;;;22.10;44.90;;;;;;5051768;28;20199;-56
2022/11/22 13:07:39;;;;;;;0.90;0.70;;;22.00;44.80;;;;;;5073199;28;20222;-54
2022/11/22 13:10:17;;;;;;;1.48;0.80;;;22.00;44.80;;;;;;5072178;28;20654;-57
2022/11/22 13:12:49;;;;;;;1.40;0.70;;;22.00;44.90;;;;;;5071691;28;20613;-57
2022/11/22 13:15:29;;;;;;;1.23;0.70;;;22.00;45.00;;;;;;5057917;28;20207;-56
2022/11/22 13:18:00;;;;;;;1.30;0.70;;;22.00;45.00;;;;;;5050341;28;20195;-55
2022/11/22 13:20:36;;;;;;;1.20;0.70;;;21.90;45.00;;;;;;5051664;28;20199;-56
2022/11/22 13:23:22;;;;;;;0.75;0.70;;;21.90;45.00;;;;;;5051506;28;20769;-58
2022/11/22 13:26:06;;;;;;;1.10;0.60;;;21.90;45.10;;;;;;5051559;28;20215;-58
2022/11/22 13:28:39;;;;;;;1.20;0.55;;;21.90;45.10;;;;;;5051954;28;20195;-58
2022/11/22 13:31:19;;;;;;;0.65;0.52;;;21.90;45.10;;;;;;5051429;28;20192;-55
2022/11/22 13:33:58;;;;;;;1.25;0.60;;;21.90;45.10;;;;;;5051883;28;20219;-58
2022/11/22 13:36:40;;;;;;;0.70;0.65;;;21.90;45.70;;;;;;5051743;28;20209;-55